Time;durP1;ratioP1;P1;durP2;ratioP2;P2;SDS_P1;SDS_P2;PMS_P1;PMS_P2;Temp;Humidity;BMP_temperature;BMP_pressure;BME280_temperature;BME280_humidity;BME280_pressure;Samples;Min_cycle;Max_cycle;Signal;HPM_P1;HPM_P2
2021/05/10 00:01:17;;;;;;;14.65;8.75;;;;;;;1.87;82.43;93703.88;1745599;81;21164;-81
2021/05/10 00:03:45;;;;;;;17.55;8.05;;;;;;;1.82;82.50;93704.09;1768200;81;21330;-79
2021/05/10 00:06:14;;;;;;;13.13;7.00;;;;;;;1.80;82.42;93704.97;1768136;80;21163;-79
2021/05/10 00:08:43;;;;;;;11.05;6.15;;;;;;;1.78;82.61;93705.87;1768886;81;21226;-80
2021/05/10 00:11:10;;;;;;;11.20;5.15;;;;;;;1.80;82.65;93703.63;1768068;81;21226;-80
2021/05/10 00:13:43;;;;;;;8.73;5.37;;;;;;;1.80;82.78;93699.61;1767724;81;21191;-78
2021/05/10 00:16:10;;;;;;;8.60;5.60;;;;;;;1.78;82.93;93698.61;1768714;81;21080;-77
2021/05/10 00:18:38;;;;;;;9.90;6.28;;;;;;;1.77;82.80;93702.95;1767762;81;21037;-78
2021/05/10 00:21:07;;;;;;;9.83;5.10;;;;;;;1.70;82.88;93700.27;1767680;80;21688;-80
2021/05/10 00:23:35;;;;;;;8.38;5.55;;;;;;;1.66;82.97;93706.08;1769196;81;21587;-79
2021/05/10 00:26:03;;;;;;;12.30;5.97;;;;;;;1.62;83.35;93705.17;1770986;81;21666;-76
2021/05/10 00:28:31;;;;;;;8.60;5.28;;;;;;;1.60;83.55;93705.27;1770999;81;21716;-79
2021/05/10 00:30:59;;;;;;;8.48;5.45;;;;;;;1.59;83.49;93697.79;1769123;81;21068;-77
2021/05/10 00:33:26;;;;;;;10.82;5.83;;;;;;;1.56;83.43;93696.33;1769419;81;21215;-78
2021/05/10 00:35:53;;;;;;;8.73;5.05;;;;;;;1.55;83.50;93694.21;1769627;81;21168;-81
2021/05/10 00:38:20;;;;;;;8.93;5.37;;;;;;;1.56;83.52;93694.98;1768666;81;21171;-78
2021/05/10 00:40:48;;;;;;;6.50;4.00;;;;;;;1.54;83.07;93702.56;1767924;81;21205;-82
2021/05/10 00:43:15;;;;;;;10.20;4.92;;;;;;;1.50;83.15;93698.42;1769596;81;21163;-76
2021/05/10 00:45:43;;;;;;;10.58;6.05;;;;;;;1.49;83.40;93691.50;1769451;81;21160;-78
2021/05/10 00:48:10;;;;;;;8.38;5.65;;;;;;;1.49;83.59;93686.70;1769835;81;21143;-79
2021/05/10 00:50:37;;;;;;;9.28;4.75;;;;;;;1.49;83.70;93690.72;1768473;81;21168;-80
2021/05/10 00:53:05;;;;;;;6.50;3.95;;;;;;;1.45;83.41;93699.98;1769323;81;22105;-78
2021/05/10 00:55:35;;;;;;;6.08;3.92;;;;;;;1.38;83.12;93695.71;1772142;81;21793;-75
2021/05/10 00:58:02;;;;;;;7.15;4.58;;;;;;;1.30;83.51;93697.92;1771116;81;21208;-78
2021/05/10 01:00:32;;;;;;;5.45;4.40;;;;;;;1.23;84.09;93691.75;1767401;79;21176;-79
2021/05/10 01:03:00;;;;;;;7.58;4.28;;;;;;;1.21;84.31;93686.73;1781849;79;21176;-77
2021/05/10 01:05:27;;;;;;;5.30;3.90;;;;;;;1.20;84.36;93686.52;1765976;81;21631;-80
2021/05/10 01:07:54;;;;;;;5.20;3.52;;;;;;;1.23;84.35;93693.09;1765827;81;21260;-80
2021/05/10 01:10:24;;;;;;;6.85;2.92;;;;;;;1.26;84.16;93683.62;1768254;81;21227;-81
2021/05/10 01:12:52;;;;;;;3.70;2.70;;;;;;;1.24;84.18;93677.23;1769192;81;21191;-80
2021/05/10 01:15:21;;;;;;;6.35;4.03;;;;;;;1.26;84.56;93688.98;1768258;81;21220;-79
2021/05/10 01:17:51;;;;;;;8.43;3.87;;;;;;;1.26;84.66;93686.30;1769717;81;21200;-79
2021/05/10 01:20:18;;;;;;;8.45;4.00;;;;;;;1.24;84.39;93685.27;1768627;81;21163;-78
2021/05/10 01:22:47;;;;;;;5.65;4.60;;;;;;;1.22;84.17;93687.52;1770305;81;21156;-78
2021/05/10 01:25:31;;;;;;;5.92;3.58;;;;;;;1.19;84.03;93683.59;1773309;81;21213;-76
2021/05/10 01:27:59;;;;;;;5.62;3.72;;;;;;;1.17;84.04;93680.47;1768982;81;21186;-79
2021/05/10 01:30:34;;;;;;;3.92;3.52;;;;;;;1.16;83.82;93678.10;1768524;81;21237;-80
2021/05/10 01:33:02;;;;;;;3.92;2.65;;;;;;;1.12;83.77;93671.84;1767554;81;21191;-78
2021/05/10 01:35:37;;;;;;;4.42;3.55;;;;;;;1.09;84.03;93674.64;1768788;81;21156;-79
2021/05/10 01:38:06;;;;;;;4.87;3.40;;;;;;;1.04;84.31;93672.14;1768973;81;21199;-77
2021/05/10 01:40:35;;;;;;;5.05;3.47;;;;;;;0.99;84.74;93678.27;1769688;81;21140;-76
2021/05/10 01:43:03;;;;;;;6.30;3.42;;;;;;;0.94;84.76;93676.02;1768143;81;21346;-78
2021/05/10 01:45:33;;;;;;;6.30;4.42;;;;;;;0.91;84.78;93679.91;1768152;81;21650;-81
2021/05/10 01:48:09;;;;;;;6.62;4.70;;;;;;;0.85;84.96;93679.31;1768969;80;21163;-77
2021/05/10 01:50:38;;;;;;;8.50;4.65;;;;;;;0.77;85.03;93668.13;1769893;80;21658;-79
2021/05/10 01:53:06;;;;;;;7.80;5.03;;;;;;;0.67;85.27;93673.86;1771682;81;21227;-74
2021/05/10 01:55:36;;;;;;;7.05;4.55;;;;;;;0.58;85.34;93675.27;1770813;81;21872;-78
2021/05/10 01:58:04;;;;;;;6.35;4.33;;;;;;;0.54;85.49;93674.35;1769569;81;21226;-80
2021/05/10 02:00:46;;;;;;;6.05;3.90;;;;;;;0.51;85.61;93689.72;1769393;81;21479;-79
2021/05/10 02:03:20;;;;;;;7.28;5.12;;;;;;;0.52;85.95;93689.94;1768760;81;21206;-77
2021/05/10 02:05:49;;;;;;;8.38;4.83;;;;;;;0.51;85.97;93695.06;1769232;81;21069;-79
2021/05/10 02:08:17;;;;;;;9.50;5.30;;;;;;;0.46;85.98;93690.70;1769183;81;21433;-76
2021/05/10 02:10:48;;;;;;;8.95;5.75;;;;;;;0.46;86.06;93680.55;1768927;81;21180;-76
2021/05/10 02:13:22;;;;;;;7.60;4.72;;;;;;;0.45;86.24;93687.80;1744410;81;21382;-77
2021/05/10 02:15:58;;;;;;;9.28;5.10;;;;;;;0.46;86.46;93680.55;1770337;81;21132;-79
2021/05/10 02:18:30;;;;;;;9.20;5.08;;;;;;;0.48;86.44;93680.99;1769780;81;21606;-81
2021/05/10 02:20:57;;;;;;;7.92;4.20;;;;;;;0.47;86.40;93684.23;1770637;81;21498;-76
2021/05/10 02:23:27;;;;;;;6.20;4.53;;;;;;;0.48;86.10;93685.01;1771438;80;21187;-77
2021/05/10 02:26:01;;;;;;;6.78;4.20;;;;;;;0.48;86.13;93686.34;1769191;81;21184;-81
2021/05/10 02:28:30;;;;;;;6.25;4.20;;;;;;;0.48;86.08;93687.69;1769297;81;21274;-78
2021/05/10 02:30:59;;;;;;;10.30;6.65;;;;;;;0.45;86.11;93689.13;1768731;81;21607;-82
2021/05/10 02:33:30;;;;;;;24.60;9.90;;;;;;;0.42;86.29;93684.42;1769125;81;21199;-80
2021/05/10 02:35:58;;;;;;;10.82;6.00;;;;;;;0.37;86.19;93688.61;1768975;81;21112;-80
2021/05/10 02:38:25;;;;;;;7.12;4.70;;;;;;;0.35;86.17;93695.41;1768972;81;21156;-78
2021/05/10 02:40:53;;;;;;;7.05;4.50;;;;;;;0.35;86.25;93698.09;1769103;81;21215;-79
2021/05/10 02:43:23;;;;;;;8.85;4.53;;;;;;;0.38;86.42;93698.23;1768429;81;21734;-80
2021/05/10 02:45:51;;;;;;;6.85;3.60;;;;;;;0.40;86.32;93697.33;1769233;81;22164;-80
2021/05/10 02:48:19;;;;;;;5.33;4.65;;;;;;;0.44;86.84;93695.58;1769985;81;21614;-77
2021/05/10 02:50:47;;;;;;;7.17;4.42;;;;;;;0.47;86.65;93699.50;1771568;81;21164;-74
2021/05/10 02:53:15;;;;;;;11.50;5.03;;;;;;;0.43;86.56;93702.59;1769393;81;21222;-80
2021/05/10 02:55:42;;;;;;;6.28;3.60;;;;;;;0.35;86.44;93709.56;1768878;81;21243;-80
2021/05/10 02:58:09;;;;;;;7.33;4.83;;;;;;;0.28;86.33;93706.61;1768949;81;21574;-78
2021/05/10 03:00:37;;;;;;;5.85;4.20;;;;;;;0.24;86.29;93709.70;1768058;81;21191;-78
2021/05/10 03:03:04;;;;;;;6.92;3.87;;;;;;;0.21;86.39;93700.98;1769135;81;21196;-77
2021/05/10 03:05:32;;;;;;;5.70;3.72;;;;;;;0.24;86.61;93701.68;1768507;81;21674;-78
2021/05/10 03:08:01;;;;;;;7.40;4.95;;;;;;;0.24;86.63;93701.12;1767728;81;21175;-78
2021/05/10 03:10:30;;;;;;;6.42;3.40;;;;;;;0.28;86.72;93704.50;1767984;81;21390;-79
2021/05/10 03:12:57;;;;;;;4.25;2.30;;;;;;;0.31;86.80;93708.65;1769189;80;21195;-78
2021/05/10 03:15:25;;;;;;;4.75;4.05;;;;;;;0.33;86.83;93706.42;1768149;81;21176;-79
2021/05/10 03:17:53;;;;;;;3.80;2.30;;;;;;;0.31;86.99;93709.20;1770686;81;21140;-78
2021/05/10 03:20:22;;;;;;;7.62;4.58;;;;;;;0.28;87.35;93710.63;1771897;81;21520;-79
2021/05/10 03:22:52;;;;;;;16.23;7.45;;;;;;;0.30;87.28;93712.97;1769697;81;22719;-76
2021/05/10 03:25:21;;;;;;;11.75;6.40;;;;;;;0.26;86.88;93707.48;1769013;81;21618;-79
2021/05/10 03:27:50;;;;;;;10.60;7.50;;;;;;;0.24;86.79;93713.72;1767406;80;21176;-78
2021/05/10 03:30:21;;;;;;;8.43;5.17;;;;;;;0.21;86.82;93712.46;1767843;81;21512;-80
2021/05/10 03:32:49;;;;;;;8.38;5.12;;;;;;;0.19;87.04;93709.90;1733512;82;21304;-83
2021/05/10 03:35:16;;;;;;;9.25;6.87;;;;;;;0.20;87.27;93716.81;1766620;81;22293;-77
2021/05/10 03:37:45;;;;;;;21.75;12.88;;;;;;;0.18;87.25;93723.80;1765886;81;21243;-78
2021/05/10 03:40:15;;;;;;;20.55;12.68;;;;;;;0.16;87.12;93721.23;1766393;81;21211;-79
2021/05/10 03:42:43;;;;;;;19.48;11.70;;;;;;;0.13;87.11;93714.63;1766648;81;21191;-79
2021/05/10 03:45:13;;;;;;;14.07;7.72;;;;;;;0.14;87.36;93720.20;1767184;81;21128;-79
2021/05/10 03:47:41;;;;;;;5.22;4.70;;;;;;;0.15;87.44;93716.97;1769295;81;21208;-76
2021/05/10 03:50:20;;;;;;;9.45;4.58;;;;;;;0.18;87.54;93720.34;1767813;81;21179;-77
2021/05/10 03:52:50;;;;;;;7.85;4.85;;;;;;;0.21;87.50;93720.48;1766282;81;21169;-78
2021/05/10 03:55:21;;;;;;;8.03;4.30;;;;;;;0.23;87.54;93720.96;1765224;81;21239;-79
2021/05/10 03:57:49;;;;;;;5.03;4.03;;;;;;;0.27;87.75;93725.67;1767162;81;21172;-77
2021/05/10 04:00:17;;;;;;;5.50;4.28;;;;;;;0.57;88.91;93721.88;1766359;80;21653;-82
2021/05/10 04:02:46;;;;;;;9.15;4.40;;;;;;;1.27;90.18;93719.45;1766543;81;21207;-80
2021/05/10 04:05:28;;;;;;;8.30;4.50;;;;;;;2.10;87.93;93720.33;1766906;81;21200;-77
2021/05/10 04:07:50;;;;;;;4.50;3.40;;;;;;;2.92;86.69;93718.27;1763305;81;21195;-78
2021/05/10 04:15:47;;;;;;;2.92;2.55;;;;;;;5.16;75.87;93724.86;1780490;79;21140;-76
2021/05/10 04:18:15;;;;;;;2.77;2.25;;;;;;;5.57;73.57;93724.74;1796139;79;21203;-78
2021/05/10 04:20:43;;;;;;;5.40;1.90;;;;;;;5.92;71.78;93720.61;1767794;81;21199;-80
2021/05/10 04:23:11;;;;;;;2.17;1.92;;;;;;;6.27;70.33;93721.80;1768734;81;21171;-80
2021/05/10 04:25:39;;;;;;;3.27;2.98;;;;;;;6.64;68.36;93717.77;1768964;81;21389;-82
2021/05/10 04:28:06;;;;;;;2.47;1.77;;;;;;;6.90;67.17;93721.83;1768855;81;21088;-78
2021/05/10 04:30:33;;;;;;;3.87;1.80;;;;;;;7.15;66.05;93726.83;1768521;81;21178;-82
2021/05/10 04:33:01;;;;;;;3.67;1.72;;;;;;;7.44;65.06;93723.33;1768741;81;21128;-82
2021/05/10 04:35:28;;;;;;;1.70;1.60;;;;;;;7.78;63.45;93725.50;1768010;81;22245;-79
2021/05/10 04:37:56;;;;;;;5.15;4.65;;;;;;;8.21;62.29;93718.40;1769103;81;22128;-79
2021/05/10 04:40:24;;;;;;;11.03;4.12;;;;;;;8.58;60.64;93714.31;1769158;81;21175;-79
2021/05/10 04:42:51;;;;;;;4.53;3.70;;;;;;;8.76;58.75;93713.08;1770050;80;21753;-82
2021/05/10 04:45:19;;;;;;;4.03;3.25;;;;;;;8.79;58.84;93709.62;1773088;81;21284;-78
2021/05/10 04:47:47;;;;;;;3.90;3.30;;;;;;;8.72;58.91;93714.41;1769021;81;21140;-79
2021/05/10 04:50:15;;;;;;;2.65;1.57;;;;;;;8.65;59.43;93709.50;1773197;79;21674;-79
2021/05/10 04:52:44;;;;;;;2.40;2.17;;;;;;;8.56;59.73;93704.41;1775112;79;21199;-79
2021/05/10 04:55:12;;;;;;;4.00;3.60;;;;;;;8.66;59.60;93702.95;1765560;81;21192;-82
2021/05/10 04:57:40;;;;;;;5.90;5.05;;;;;;;8.87;58.80;93707.73;1766547;80;21180;-80
2021/05/10 05:00:10;;;;;;;5.62;3.62;;;;;;;9.13;58.30;93706.75;1767329;81;21650;-79
2021/05/10 05:02:38;;;;;;;6.08;5.05;;;;;;;9.40;57.50;93706.72;1768602;81;21366;-80
2021/05/10 05:05:07;;;;;;;4.08;2.55;;;;;;;9.62;56.69;93700.78;1767178;81;21658;-80
2021/05/10 05:07:35;;;;;;;3.65;2.92;;;;;;;9.69;56.41;93697.33;1768914;81;21172;-78
2021/05/10 05:10:03;;;;;;;5.15;4.40;;;;;;;9.75;56.15;93697.75;1768284;81;21151;-79
2021/05/10 05:12:31;;;;;;;3.37;3.08;;;;;;;9.94;56.21;93694.70;1771039;81;21495;-79
2021/05/10 05:15:00;;;;;;;6.45;4.90;;;;;;;10.24;54.01;93694.97;1768898;81;21305;-81
2021/05/10 05:17:27;;;;;;;4.33;3.72;;;;;;;10.54;53.57;93697.37;1768580;81;21297;-81
2021/05/10 05:19:55;;;;;;;7.58;5.10;;;;;;;10.80;53.05;93690.77;1767993;80;21495;-80
2021/05/10 05:22:23;;;;;;;5.00;4.25;;;;;;;10.88;52.44;93687.64;1767588;81;21550;-79
2021/05/10 05:24:51;;;;;;;3.33;2.77;;;;;;;10.74;52.79;93690.95;1768074;81;21199;-81
2021/05/10 05:27:18;;;;;;;2.70;2.20;;;;;;;10.45;53.13;93690.37;1767694;81;22621;-83
2021/05/10 05:29:46;;;;;;;2.95;2.52;;;;;;;10.25;53.56;93686.45;1768420;81;21682;-81
2021/05/10 05:32:14;;;;;;;4.30;2.55;;;;;;;10.16;53.10;93684.67;1768423;81;21211;-80
2021/05/10 05:34:44;;;;;;;3.67;2.20;;;;;;;10.08;53.52;93677.09;1767549;81;21214;-80
2021/05/10 05:37:12;;;;;;;4.55;3.62;;;;;;;10.20;54.20;93680.02;1768410;81;21194;-80
2021/05/10 05:39:42;;;;;;;3.60;2.58;;;;;;;10.53;53.71;93672.68;1770088;81;21477;-75
2021/05/10 05:42:10;;;;;;;3.33;1.92;;;;;;;10.88;53.12;93672.68;1770215;81;21144;-80
2021/05/10 05:44:38;;;;;;;2.50;2.30;;;;;;;11.12;50.75;93668.36;1767980;81;21263;-78
2021/05/10 05:47:06;;;;;;;2.50;1.90;;;;;;;11.26;50.47;93670.87;1768303;81;21216;-81
2021/05/10 05:49:35;;;;;;;2.58;2.00;;;;;;;11.48;50.98;93678.39;1767930;81;21821;-82
2021/05/10 05:52:04;;;;;;;3.70;2.33;;;;;;;11.80;49.53;93670.08;1767529;81;21374;-78
2021/05/10 05:54:33;;;;;;;2.42;2.22;;;;;;;12.03;48.60;93667.65;1767827;81;21179;-78
2021/05/10 05:57:00;;;;;;;4.33;2.35;;;;;;;12.27;48.77;93665.97;1766750;81;21187;-82
2021/05/10 05:59:29;;;;;;;2.87;2.02;;;;;;;12.64;47.91;93662.59;1767354;81;21195;-80
2021/05/10 06:01:58;;;;;;;3.12;2.20;;;;;;;13.09;46.62;93672.73;1768605;81;21199;-79
2021/05/10 06:04:26;;;;;;;2.42;2.02;;;;;;;13.50;44.61;93663.73;1767396;81;22749;-79
2021/05/10 06:06:55;;;;;;;2.02;1.80;;;;;;;13.88;44.00;93666.41;1768901;81;21190;-78
2021/05/10 06:09:24;;;;;;;2.58;2.05;;;;;;;14.30;43.04;93667.83;1771546;81;21175;-75
2021/05/10 06:11:55;;;;;;;2.02;1.80;;;;;;;14.72;41.70;93666.44;1767237;81;21171;-80
2021/05/10 06:14:23;;;;;;;2.95;2.50;;;;;;;15.08;40.83;93666.44;1769092;81;21096;-82
2021/05/10 06:16:50;;;;;;;2.35;2.08;;;;;;;15.28;40.62;93665.30;1744811;81;22313;-82
2021/05/10 06:19:19;;;;;;;4.08;1.70;;;;;;;15.52;39.17;93666.02;1767737;81;21731;-79
2021/05/10 06:21:47;;;;;;;5.03;2.10;;;;;;;15.68;38.05;93661.27;1767825;81;21443;-82
2021/05/10 06:24:14;;;;;;;4.30;2.30;;;;;;;15.88;38.26;93662.63;1767358;81;21498;-80
2021/05/10 06:26:44;;;;;;;2.83;1.67;;;;;;;16.14;37.64;93660.92;1767631;81;21192;-82
2021/05/10 06:29:12;;;;;;;3.85;1.77;;;;;;;16.27;37.04;93655.53;1767967;81;22121;-80
2021/05/10 06:31:41;;;;;;;1.77;1.67;;;;;;;16.27;36.65;93659.05;1769520;81;21116;-84
2021/05/10 06:34:08;;;;;;;2.12;1.98;;;;;;;16.07;36.50;93663.03;1770138;81;21168;-80
2021/05/10 06:36:36;;;;;;;2.02;1.82;;;;;;;15.91;36.97;93660.98;1771572;80;21195;-80
2021/05/10 06:39:04;;;;;;;1.87;1.75;;;;;;;15.86;37.36;93664.23;1769415;81;21163;-80
2021/05/10 06:41:31;;;;;;;6.80;2.52;;;;;;;15.86;36.98;93658.16;1768355;81;21316;-79
2021/05/10 06:43:59;;;;;;;1.77;1.57;;;;;;;16.01;37.63;93654.52;1766957;81;21197;-79
2021/05/10 06:46:26;;;;;;;3.62;1.65;;;;;;;16.29;37.06;93653.16;1768173;81;21503;-82
2021/05/10 06:48:55;;;;;;;1.77;1.67;;;;;;;16.55;36.49;93645.11;1768531;81;21187;-83
2021/05/10 06:51:22;;;;;;;2.58;1.75;;;;;;;16.69;35.45;93646.92;1768064;81;21199;-80
2021/05/10 06:53:50;;;;;;;1.60;1.50;;;;;;;16.66;35.86;93640.14;1768359;81;21624;-77
2021/05/10 06:56:18;;;;;;;1.40;1.22;;;;;;;16.60;34.43;93637.15;1763914;79;21187;-80
2021/05/10 06:58:45;;;;;;;1.60;1.50;;;;;;;16.42;34.57;93640.90;1759479;81;21211;-83
2021/05/10 07:01:12;;;;;;;3.10;1.32;;;;;;;16.36;36.02;93632.41;1778500;78;21188;-82
2021/05/10 07:03:40;;;;;;;2.87;1.70;;;;;;;16.39;36.74;93634.28;1843018;77;21160;-78
2021/05/10 07:06:08;;;;;;;2.45;1.95;;;;;;;16.58;37.26;93629.93;1781463;78;21213;-81
2021/05/10 07:08:36;;;;;;;1.77;1.50;;;;;;;16.90;37.10;93625.08;1769494;79;21409;-81
2021/05/10 07:11:03;;;;;;;28.62;3.42;;;;;;;17.09;35.66;93621.28;1764415;81;21195;-79
2021/05/10 07:13:31;;;;;;;2.15;1.75;;;;;;;17.09;35.54;93625.41;1764323;81;21212;-81
2021/05/10 07:15:59;;;;;;;1.77;1.50;;;;;;;16.97;34.85;93622.16;1764444;81;21192;-81
2021/05/10 07:18:28;;;;;;;1.40;1.30;;;;;;;16.77;35.59;93626.95;1765112;80;22196;-86
2021/05/10 07:20:55;;;;;;;2.10;1.40;;;;;;;16.62;36.00;93618.86;1764938;80;21207;-83
2021/05/10 07:23:23;;;;;;;2.70;1.55;;;;;;;16.47;36.00;93626.09;1766739;81;21198;-80
2021/05/10 07:25:53;;;;;;;1.55;1.45;;;;;;;16.50;36.32;93623.06;1768783;81;21198;-83
2021/05/10 07:28:20;;;;;;;2.12;1.50;;;;;;;16.56;36.02;93621.36;1767604;81;21191;-84
2021/05/10 07:30:48;;;;;;;1.22;1.17;;;;;;;16.58;37.66;93620.32;1769720;81;22159;-78
2021/05/10 07:33:17;;;;;;;2.25;1.10;;;;;;;16.70;35.37;93615.54;1770772;81;21481;-79
2021/05/10 07:35:45;;;;;;;2.12;1.20;;;;;;;16.91;34.00;93610.14;1768691;81;21175;-81
2021/05/10 07:38:12;;;;;;;3.02;1.60;;;;;;;17.06;35.09;93605.05;1766772;80;21164;-79
2021/05/10 07:40:40;;;;;;;3.05;1.25;;;;;;;17.19;33.88;93606.51;1766511;80;21187;-82
2021/05/10 07:43:07;;;;;;;2.50;1.20;;;;;;;17.23;34.12;93601.08;1767308;81;21424;-81
2021/05/10 07:45:36;;;;;;;2.90;1.32;;;;;;;17.34;32.87;93603.55;1768255;81;21215;-82
2021/05/10 07:48:05;;;;;;;2.17;1.98;;;;;;;17.32;32.23;93597.70;1767308;81;21681;-78
2021/05/10 07:50:32;;;;;;;2.12;1.42;;;;;;;17.27;32.95;93603.73;1766525;80;21654;-79
2021/05/10 07:52:59;;;;;;;1.35;1.25;;;;;;;17.35;33.05;93604.32;1766133;81;21238;-78
2021/05/10 07:55:27;;;;;;;1.50;1.25;;;;;;;17.54;33.74;93595.14;1766685;81;21881;-83
2021/05/10 07:57:55;;;;;;;3.40;1.20;;;;;;;17.72;34.30;93592.67;1768487;81;21175;-78
2021/05/10 08:00:35;;;;;;;1.30;1.12;;;;;;;17.98;33.55;93587.26;1769897;81;21211;-77
2021/05/10 08:03:09;;;;;;;1.40;1.30;;;;;;;18.17;33.39;93588.27;1770322;80;21218;-84
2021/05/10 08:05:38;;;;;;;1.40;1.02;;;;;;;18.37;31.79;93587.44;1768204;81;21774;-82
2021/05/10 08:08:06;;;;;;;1.70;1.57;;;;;;;18.54;32.59;93580.42;1767606;80;21195;-82
2021/05/10 08:10:33;;;;;;;1.15;1.10;;;;;;;18.75;32.07;93582.53;1767996;81;21195;-82
2021/05/10 08:13:02;;;;;;;1.50;1.12;;;;;;;18.88;32.66;93573.64;1765646;81;21677;-84
2021/05/10 08:15:30;;;;;;;1.10;1.00;;;;;;;18.97;31.44;93581.22;1766982;81;22293;-78
2021/05/10 08:17:59;;;;;;;1.30;1.20;;;;;;;19.08;32.67;93578.88;1766898;81;21222;-79
2021/05/10 08:20:29;;;;;;;1.32;1.22;;;;;;;19.27;32.03;93574.29;1764590;81;21377;-79
2021/05/10 08:22:56;;;;;;;3.37;1.50;;;;;;;19.35;31.82;93576.95;1767275;81;21488;-78
2021/05/10 08:25:24;;;;;;;1.60;1.45;;;;;;;19.34;32.45;93574.66;1768911;81;21642;-84
2021/05/10 08:27:52;;;;;;;1.40;1.30;;;;;;;19.36;33.81;93572.97;1770568;81;21196;-79
2021/05/10 08:30:22;;;;;;;4.37;1.95;;;;;;;19.40;32.36;93565.95;1770812;81;21177;-77
2021/05/10 08:32:53;;;;;;;1.62;1.52;;;;;;;19.57;33.66;93567.94;1767479;81;22091;-78
2021/05/10 08:35:20;;;;;;;2.27;1.62;;;;;;;19.76;32.47;93559.96;1765912;81;21064;-78
2021/05/10 08:37:50;;;;;;;1.45;1.35;;;;;;;19.95;32.54;93561.45;1766648;81;21327;-79
2021/05/10 08:40:19;;;;;;;1.25;1.20;;;;;;;20.14;31.55;93556.95;1765999;81;21223;-79
2021/05/10 08:42:47;;;;;;;1.30;1.15;;;;;;;20.25;30.96;93548.88;1766156;81;21183;-80
2021/05/10 08:45:20;;;;;;;5.15;1.70;;;;;;;20.37;31.88;93550.13;1766383;80;21337;-81
2021/05/10 08:47:48;;;;;;;2.95;1.65;;;;;;;20.59;31.96;93547.33;1768527;81;21218;-80
2021/05/10 08:50:16;;;;;;;2.60;1.55;;;;;;;20.83;30.83;93546.76;1768617;81;21140;-79
2021/05/10 08:52:43;;;;;;;3.42;1.40;;;;;;;20.96;30.78;93543.27;1766849;81;21384;-86
2021/05/10 08:55:16;;;;;;;2.22;1.67;;;;;;;21.04;30.34;93542.34;1769075;81;21168;-80
2021/05/10 08:57:44;;;;;;;1.47;1.37;;;;;;;21.07;30.33;93542.20;1771310;80;22018;-77
2021/05/10 09:00:14;;;;;;;1.32;1.22;;;;;;;21.07;29.60;93537.29;1768039;81;21175;-81
2021/05/10 09:02:41;;;;;;;1.92;0.70;;;;;;;21.02;28.71;93532.35;1767793;81;21128;-79
2021/05/10 09:05:16;;;;;;;2.42;1.07;;;;;;;20.93;28.13;93540.03;1765864;81;21910;-82
2021/05/10 09:07:43;;;;;;;2.77;1.10;;;;;;;20.82;29.35;93532.17;1766544;80;21155;-79
2021/05/10 09:10:12;;;;;;;0.90;0.90;;;;;;;20.69;29.80;93531.55;1743968;81;21443;-78
2021/05/10 09:12:51;;;;;;;1.62;0.95;;;;;;;20.67;30.04;93531.84;1767275;81;21219;-80
2021/05/10 09:15:24;;;;;;;1.82;1.02;;;;;;;20.67;29.10;93522.94;1767824;81;21590;-79
2021/05/10 09:17:57;;;;;;;1.00;0.88;;;;;;;20.63;29.92;93524.31;1768994;81;21199;-82
2021/05/10 09:20:30;;;;;;;1.02;0.93;;;;;;;20.67;30.29;93522.17;1767743;81;21163;-80
2021/05/10 09:23:09;;;;;;;1.52;1.27;;;;;;;20.75;30.18;93518.66;1768141;81;22101;-81
2021/05/10 09:25:43;;;;;;;1.85;1.25;;;;;;;20.80;29.91;93508.39;1772097;81;21579;-77
2021/05/10 09:28:40;;;;;;;1.52;1.42;;;;;;;20.88;30.37;93505.34;1771004;80;21103;-80
2021/05/10 09:31:09;;;;;;;1.27;1.17;;;;;;;20.95;29.86;93501.66;1799580;79;21217;-78
2021/05/10 09:33:46;;;;;;;1.50;1.40;;;;;;;20.98;30.37;93496.56;1740887;80;21675;-77
2021/05/10 09:36:37;;;;;;;4.03;1.65;;;;;;;20.97;31.04;93491.51;1778122;80;21528;-77
2021/05/10 09:39:29;;;;;;;2.50;0.93;;;;;;;21.00;31.41;93493.36;1801552;78;21183;-78
2021/05/10 09:41:59;;;;;;;0.88;0.80;;;;;;;21.10;31.19;93487.99;1727188;79;21175;-77
2021/05/10 09:44:43;;;;;;;3.60;1.00;;;;;;;21.21;30.22;93488.89;1744398;82;21201;-77
2021/05/10 09:47:10;;;;;;;4.08;2.60;;;;;;;21.23;30.37;93485.83;1809911;78;21200;-74
2021/05/10 09:49:49;;;;;;;2.52;0.98;;;;;;;21.23;30.64;93478.91;1824453;77;21428;-76
2021/05/10 09:52:24;;;;;;;1.52;0.93;;;;;;;21.28;29.98;93476.90;1818128;78;21189;-75
2021/05/10 09:54:59;;;;;;;1.05;1.00;;;;;;;21.34;29.57;93478.48;1759604;77;21174;-77
2021/05/10 09:57:29;;;;;;;1.22;1.10;;;;;;;21.34;29.75;93476.47;1824079;78;21180;-77
2021/05/10 10:00:20;;;;;;;3.92;1.90;;;;;;;21.29;28.85;93473.55;1824788;78;21145;-77
2021/05/10 10:02:48;;;;;;;1.30;0.93;;;;;;;21.20;29.85;93468.00;1825309;78;21356;-77
2021/05/10 10:05:17;;;;;;;5.78;1.40;;;;;;;21.20;30.49;93465.24;1823356;78;21217;-78
2021/05/10 10:07:44;;;;;;;1.60;1.40;;;;;;;21.21;28.98;93463.41;1819414;78;21189;-76
2021/05/10 10:10:13;;;;;;;4.33;1.22;;;;;;;21.19;30.20;93460.33;1818871;78;21249;-80
2021/05/10 10:12:42;;;;;;;1.15;1.00;;;;;;;21.26;30.89;93462.02;1817998;78;21217;-76
2021/05/10 10:15:12;;;;;;;0.80;0.80;;;;;;;21.38;30.64;93459.72;1762237;80;21357;-77
2021/05/10 10:17:40;;;;;;;1.42;1.07;;;;;;;21.46;31.16;93459.55;1821501;78;21153;-76
2021/05/10 10:20:13;;;;;;;1.35;0.93;;;;;;;21.54;29.69;93452.45;1828541;78;21609;-77
2021/05/10 10:22:41;;;;;;;2.75;2.15;;;;;;;21.62;29.75;93457.67;1814085;78;21184;-77
2021/05/10 10:25:09;;;;;;;1.90;1.45;;;;;;;21.68;29.90;93451.67;1815202;78;21179;-79
2021/05/10 10:27:38;;;;;;;5.35;1.20;;;;;;;21.71;28.63;93450.12;1812494;78;21369;-77
2021/05/10 10:30:09;;;;;;;0.70;0.70;;;;;;;21.74;28.99;93449.20;1789053;77;21522;-79
2021/05/10 10:32:37;;;;;;;1.67;0.90;;;;;;;21.79;30.24;93439.48;1756161;80;21435;-78
2021/05/10 10:35:05;;;;;;;3.20;1.05;;;;;;;21.82;29.60;93434.41;1731252;80;21196;-78
2021/05/10 10:37:33;;;;;;;1.25;1.12;;;;;;;21.78;29.40;93437.96;1773629;80;21179;-76
2021/05/10 10:40:03;;;;;;;1.55;1.20;;;;;;;21.73;29.05;93428.89;1765436;79;21363;-76
2021/05/10 10:42:31;;;;;;;1.25;1.05;;;;;;;21.70;28.43;93433.38;1798006;79;21717;-76
2021/05/10 10:45:02;;;;;;;5.20;1.82;;;;;;;21.69;29.20;93432.44;1761166;79;21147;-78
2021/05/10 10:47:44;;;;;;;1.98;1.80;;;;;;;21.72;30.65;93429.51;1809304;78;21215;-76
2021/05/10 10:50:15;;;;;;;4.75;2.30;;;;;;;21.82;30.98;93437.94;1824609;78;21098;-78
2021/05/10 10:52:57;;;;;;;61.70;5.08;;;;;;;21.93;30.09;93427.75;1814994;78;22318;-78
2021/05/10 10:55:27;;;;;;;2.67;1.20;;;;;;;21.96;29.86;93428.80;1810729;77;21371;-75
2021/05/10 10:58:05;;;;;;;1.15;1.05;;;;;;;21.97;29.70;93428.34;1811310;79;21126;-75
2021/05/10 11:00:32;;;;;;;2.30;1.27;;;;;;;22.01;27.77;93426.80;1750112;81;21183;-76
2021/05/10 11:02:59;;;;;;;2.95;1.20;;;;;;;22.00;28.47;93421.09;1726362;80;21191;-76
2021/05/10 11:05:27;;;;;;;2.67;1.42;;;;;;;22.00;27.82;93418.32;1805413;78;21421;-77
2021/05/10 11:08:04;;;;;;;2.20;1.40;;;;;;;21.99;28.41;93417.56;1816697;78;21167;-77
2021/05/10 11:10:58;;;;;;;2.95;2.12;;;;;;;22.09;28.46;93411.99;1804761;79;21274;-78
2021/05/10 11:13:33;;;;;;;3.08;1.50;;;;;;;22.23;29.41;93409.95;1809335;79;21167;-80
2021/05/10 11:16:02;;;;;;;2.70;2.08;;;;;;;22.35;28.24;93410.34;1810330;79;21151;-80
2021/05/10 11:18:47;;;;;;;2.47;2.25;;;;;;;22.39;27.62;93399.08;1809177;79;21429;-79
2021/05/10 11:21:32;;;;;;;6.95;3.83;;;;;;;22.45;28.17;93405.48;1810918;79;21124;-80
2021/05/10 11:24:05;;;;;;;2.67;1.80;;;;;;;22.53;29.76;93396.37;1811164;79;21512;-77
2021/05/10 11:26:38;;;;;;;1.35;1.20;;;;;;;22.63;27.58;93399.06;1810379;78;21080;-78
2021/05/10 11:29:08;;;;;;;1.77;1.67;;;;;;;22.68;27.98;93397.01;1808605;79;21771;-77
2021/05/10 11:31:44;;;;;;;4.90;1.20;;;;;;;22.68;28.48;93392.26;1806249;79;21324;-79
2021/05/10 11:34:15;;;;;;;1.60;1.50;;;;;;;22.69;27.80;93393.78;1810810;79;21162;-78
2021/05/10 11:36:52;;;;;;;3.52;1.45;;;;;;;22.74;28.81;93385.42;1810199;79;21692;-77
2021/05/10 11:39:27;;;;;;;1.47;1.37;;;;;;;22.81;28.54;93380.91;1809658;79;21144;-81
2021/05/10 11:42:01;;;;;;;3.20;1.50;;;;;;;22.90;28.63;93378.66;1810915;79;21137;-78
2021/05/10 11:44:35;;;;;;;4.00;1.37;;;;;;;22.97;28.88;93378.33;1806224;79;21489;-78
2021/05/10 11:47:10;;;;;;;1.90;1.70;;;;;;;22.99;28.55;93377.25;1806240;79;21214;-76
2021/05/10 11:49:50;;;;;;;1.62;1.20;;;;;;;23.05;27.87;93378.09;1810696;79;21108;-77
2021/05/10 11:52:23;;;;;;;1.55;1.40;;;;;;;23.13;28.97;93378.48;1809471;78;21202;-77
2021/05/10 11:54:54;;;;;;;1.35;0.93;;;;;;;23.25;29.01;93369.90;1810490;79;21159;-76